sensor_id;sensor_type;location;lat;lon;timestamp;temperature;humidity
52209;DHT22;38507;53.132;6.394;2023-07-31T00:02:17;16.30;99.90
52209;DHT22;38507;53.132;6.394;2023-07-31T00:04:43;16.30;99.90
52209;DHT22;38507;53.132;6.394;2023-07-31T00:07:08;16.30;99.90
52209;DHT22;38507;53.132;6.394;2023-07-31T00:09:34;16.30;99.90
52209;DHT22;38507;53.132;6.394;2023-07-31T00:12:00;16.20;99.90
52209;DHT22;38507;53.132;6.394;2023-07-31T00:14:25;16.20;99.90
52209;DHT22;38507;53.132;6.394;2023-07-31T00:16:51;16.20;99.90
52209;DHT22;38507;53.132;6.394;2023-07-31T00:19:17;16.20;99.90
52209;DHT22;38507;53.132;6.394;2023-07-31T00:21:43;16.10;99.90
52209;DHT22;38507;53.132;6.394;2023-07-31T00:24:09;16.10;99.90
52209;DHT22;38507;53.132;6.394;2023-07-31T00:26:34;16.00;99.90
52209;DHT22;38507;53.132;6.394;2023-07-31T00:29:00;16.00;99.90
52209;DHT22;38507;53.132;6.394;2023-07-31T00:31:25;16.00;99.90
52209;DHT22;38507;53.132;6.394;2023-07-31T00:33:51;16.00;99.90
52209;DHT22;38507;53.132;6.394;2023-07-31T00:36:17;16.00;99.90
52209;DHT22;38507;53.132;6.394;2023-07-31T00:38:43;16.00;99.90
52209;DHT22;38507;53.132;6.394;2023-07-31T00:41:09;16.00;99.90
52209;DHT22;38507;53.132;6.394;2023-07-31T00:43:35;15.90;99.90
52209;DHT22;38507;53.132;6.394;2023-07-31T00:46:00;15.90;99.90
52209;DHT22;38507;53.132;6.394;2023-07-31T00:48:26;15.90;99.90
52209;DHT22;38507;53.132;6.394;2023-07-31T00:50:52;15.90;99.90
52209;DHT22;38507;53.132;6.394;2023-07-31T00:53:18;15.90;99.90
52209;DHT22;38507;53.132;6.394;2023-07-31T00:55:43;15.80;99.90
52209;DHT22;38507;53.132;6.394;2023-07-31T00:58:09;15.80;99.90
52209;DHT22;38507;53.132;6.394;2023-07-31T01:00:35;15.80;99.90
52209;DHT22;38507;53.132;6.394;2023-07-31T01:03:01;15.80;99.90
52209;DHT22;38507;53.132;6.394;2023-07-31T01:06:00;15.90;99.90
52209;DHT22;38507;53.132;6.394;2023-07-31T01:08:36;15.70;99.90
52209;DHT22;38507;53.132;6.394;2023-07-31T01:11:12;15.80;99.90
52209;DHT22;38507;53.132;6.394;2023-07-31T01:13:41;15.70;99.90
52209;DHT22;38507;53.132;6.394;2023-07-31T01:16:07;15.80;99.90
52209;DHT22;38507;53.132;6.394;2023-07-31T01:18:33;15.70;99.90
52209;DHT22;38507;53.132;6.394;2023-07-31T01:21:16;15.70;99.90
52209;DHT22;38507;53.132;6.394;2023-07-31T01:26:44;15.70;99.90
52209;DHT22;38507;53.132;6.394;2023-07-31T01:29:15;15.70;99.90
52209;DHT22;38507;53.132;6.394;2023-07-31T01:31:44;15.70;99.90
52209;DHT22;38507;53.132;6.394;2023-07-31T01:34:13;15.70;99.90
52209;DHT22;38507;53.132;6.394;2023-07-31T01:36:39;15.70;99.90
52209;DHT22;38507;53.132;6.394;2023-07-31T01:39:05;15.70;99.90
52209;DHT22;38507;53.132;6.394;2023-07-31T01:41:30;15.70;99.90
52209;DHT22;38507;53.132;6.394;2023-07-31T01:43:56;15.70;99.90
52209;DHT22;38507;53.132;6.394;2023-07-31T01:46:22;15.70;99.90
52209;DHT22;38507;53.132;6.394;2023-07-31T01:48:47;15.70;99.90
52209;DHT22;38507;53.132;6.394;2023-07-31T01:51:13;15.60;99.90
52209;DHT22;38507;53.132;6.394;2023-07-31T01:53:39;15.70;99.90
52209;DHT22;38507;53.132;6.394;2023-07-31T01:56:04;15.70;99.90
52209;DHT22;38507;53.132;6.394;2023-07-31T01:58:30;15.70;99.90
52209;DHT22;38507;53.132;6.394;2023-07-31T02:00:56;15.70;99.90
52209;DHT22;38507;53.132;6.394;2023-07-31T02:03:21;15.70;99.90
52209;DHT22;38507;53.132;6.394;2023-07-31T02:05:48;15.60;99.90
52209;DHT22;38507;53.132;6.394;2023-07-31T02:08:14;15.60;99.90
52209;DHT22;38507;53.132;6.394;2023-07-31T02:10:40;15.70;99.90
52209;DHT22;38507;53.132;6.394;2023-07-31T02:13:06;15.60;99.90
52209;DHT22;38507;53.132;6.394;2023-07-31T02:15:31;15.60;99.90
52209;DHT22;38507;53.132;6.394;2023-07-31T02:17:57;15.70;99.90
52209;DHT22;38507;53.132;6.394;2023-07-31T02:20:23;15.70;99.90
52209;DHT22;38507;53.132;6.394;2023-07-31T02:22:48;15.70;99.90
52209;DHT22;38507;53.132;6.394;2023-07-31T02:25:14;15.60;99.90
52209;DHT22;38507;53.132;6.394;2023-07-31T02:27:40;15.70;99.90
52209;DHT22;38507;53.132;6.394;2023-07-31T02:30:06;15.60;99.90
52209;DHT22;38507;53.132;6.394;2023-07-31T02:32:32;15.60;99.90
52209;DHT22;38507;53.132;6.394;2023-07-31T02:34:57;15.70;99.90
52209;DHT22;38507;53.132;6.394;2023-07-31T02:37:25;15.70;99.90
52209;DHT22;38507;53.132;6.394;2023-07-31T02:39:51;15.70;99.90
52209;DHT22;38507;53.132;6.394;2023-07-31T02:42:16;15.70;99.90
52209;DHT22;38507;53.132;6.394;2023-07-31T02:44:42;15.70;99.90
52209;DHT22;38507;53.132;6.394;2023-07-31T02:47:08;15.60;99.90
52209;DHT22;38507;53.132;6.394;2023-07-31T02:49:34;15.60;99.90
52209;DHT22;38507;53.132;6.394;2023-07-31T02:51:59;15.60;99.90
52209;DHT22;38507;53.132;6.394;2023-07-31T02:54:25;15.60;99.90
52209;DHT22;38507;53.132;6.394;2023-07-31T02:56:50;15.70;99.90
52209;DHT22;38507;53.132;6.394;2023-07-31T02:59:17;15.70;99.90
52209;DHT22;38507;53.132;6.394;2023-07-31T03:01:42;15.70;99.90
52209;DHT22;38507;53.132;6.394;2023-07-31T03:04:08;15.60;99.90
52209;DHT22;38507;53.132;6.394;2023-07-31T03:06:33;15.70;99.90
52209;DHT22;38507;53.132;6.394;2023-07-31T03:08:59;15.60;99.90
52209;DHT22;38507;53.132;6.394;2023-07-31T03:11:25;15.70;99.90
52209;DHT22;38507;53.132;6.394;2023-07-31T03:13:50;15.60;99.90
52209;DHT22;38507;53.132;6.394;2023-07-31T03:16:16;15.60;99.90
52209;DHT22;38507;53.132;6.394;2023-07-31T03:18:41;15.60;99.90
52209;DHT22;38507;53.132;6.394;2023-07-31T03:21:07;15.60;99.90
52209;DHT22;38507;53.132;6.394;2023-07-31T03:23:33;15.70;99.90
52209;DHT22;38507;53.132;6.394;2023-07-31T03:26:00;15.60;99.90
52209;DHT22;38507;53.132;6.394;2023-07-31T03:28:26;15.70;99.90
52209;DHT22;38507;53.132;6.394;2023-07-31T03:30:52;15.60;99.90
52209;DHT22;38507;53.132;6.394;2023-07-31T03:33:18;15.70;99.90
52209;DHT22;38507;53.132;6.394;2023-07-31T03:35:44;15.60;99.90
52209;DHT22;38507;53.132;6.394;2023-07-31T03:38:09;15.70;99.90
52209;DHT22;38507;53.132;6.394;2023-07-31T03:40:35;15.60;99.90
52209;DHT22;38507;53.132;6.394;2023-07-31T03:43:01;15.60;99.90
52209;DHT22;38507;53.132;6.394;2023-07-31T03:45:26;15.60;99.90
52209;DHT22;38507;53.132;6.394;2023-07-31T03:47:52;15.60;99.90
52209;DHT22;38507;53.132;6.394;2023-07-31T03:50:19;15.60;99.90
52209;DHT22;38507;53.132;6.394;2023-07-31T03:52:44;15.60;99.90
52209;DHT22;38507;53.132;6.394;2023-07-31T03:55:10;15.60;99.90
52209;DHT22;38507;53.132;6.394;2023-07-31T03:57:36;15.60;99.90
52209;DHT22;38507;53.132;6.394;2023-07-31T04:00:01;15.60;99.90
52209;DHT22;38507;53.132;6.394;2023-07-31T04:02:27;15.60;99.90
52209;DHT22;38507;53.132;6.394;2023-07-31T04:04:52;15.60;99.90
52209;DHT22;38507;53.132;6.394;2023-07-31T04:07:18;15.60;99.90
52209;DHT22;38507;53.132;6.394;2023-07-31T04:09:44;15.60;99.90
52209;DHT22;38507;53.132;6.394;2023-07-31T04:12:09;15.60;99.90
52209;DHT22;38507;53.132;6.394;2023-07-31T04:14:35;15.60;99.90
52209;DHT22;38507;53.132;6.394;2023-07-31T04:17:00;15.70;99.90
52209;DHT22;38507;53.132;6.394;2023-07-31T04:19:26;15.60;99.90
52209;DHT22;38507;53.132;6.394;2023-07-31T04:21:52;15.60;99.90
52209;DHT22;38507;53.132;6.394;2023-07-31T04:24:17;15.70;99.90
52209;DHT22;38507;53.132;6.394;2023-07-31T04:26:52;15.70;99.90
52209;DHT22;38507;53.132;6.394;2023-07-31T04:29:18;15.70;99.90
52209;DHT22;38507;53.132;6.394;2023-07-31T04:31:44;15.70;99.90
52209;DHT22;38507;53.132;6.394;2023-07-31T04:34:10;15.70;99.90
52209;DHT22;38507;53.132;6.394;2023-07-31T04:36:37;15.70;99.90
52209;DHT22;38507;53.132;6.394;2023-07-31T04:39:03;15.70;99.90
52209;DHT22;38507;53.132;6.394;2023-07-31T04:41:28;15.70;99.90
52209;DHT22;38507;53.132;6.394;2023-07-31T04:43:54;15.70;99.90
52209;DHT22;38507;53.132;6.394;2023-07-31T04:46:19;15.80;99.90
52209;DHT22;38507;53.132;6.394;2023-07-31T04:48:45;15.70;99.90
52209;DHT22;38507;53.132;6.394;2023-07-31T04:51:11;15.80;99.90
52209;DHT22;38507;53.132;6.394;2023-07-31T04:53:37;15.70;99.90
52209;DHT22;38507;53.132;6.394;2023-07-31T04:56:02;15.80;99.90
52209;DHT22;38507;53.132;6.394;2023-07-31T04:58:28;15.80;99.90
52209;DHT22;38507;53.132;6.394;2023-07-31T05:00:54;15.80;99.90
52209;DHT22;38507;53.132;6.394;2023-07-31T05:03:19;15.80;99.90
52209;DHT22;38507;53.132;6.394;2023-07-31T05:05:45;15.70;99.90
52209;DHT22;38507;53.132;6.394;2023-07-31T05:08:11;15.70;99.90
52209;DHT22;38507;53.132;6.394;2023-07-31T05:10:36;15.70;99.90
52209;DHT22;38507;53.132;6.394;2023-07-31T05:13:02;15.80;99.90
52209;DHT22;38507;53.132;6.394;2023-07-31T05:15:28;15.70;99.90
52209;DHT22;38507;53.132;6.394;2023-07-31T05:17:54;15.70;99.90
52209;DHT22;38507;53.132;6.394;2023-07-31T05:20:20;15.70;99.90
52209;DHT22;38507;53.132;6.394;2023-07-31T05:22:46;15.90;99.90
52209;DHT22;38507;53.132;6.394;2023-07-31T05:25:12;15.80;99.90
52209;DHT22;38507;53.132;6.394;2023-07-31T05:27:38;15.80;99.90
52209;DHT22;38507;53.132;6.394;2023-07-31T05:30:04;15.90;99.90
52209;DHT22;38507;53.132;6.394;2023-07-31T05:32:30;15.90;99.90
52209;DHT22;38507;53.132;6.394;2023-07-31T05:34:56;15.90;99.90
52209;DHT22;38507;53.132;6.394;2023-07-31T05:37:22;16.00;99.90
52209;DHT22;38507;53.132;6.394;2023-07-31T05:39:48;15.90;99.90
52209;DHT22;38507;53.132;6.394;2023-07-31T05:42:13;15.80;99.90
52209;DHT22;38507;53.132;6.394;2023-07-31T05:44:39;16.00;99.90
52209;DHT22;38507;53.132;6.394;2023-07-31T05:47:05;16.00;99.90
52209;DHT22;38507;53.132;6.394;2023-07-31T05:49:30;16.00;99.90
52209;DHT22;38507;53.132;6.394;2023-07-31T05:51:56;16.10;99.90
52209;DHT22;38507;53.132;6.394;2023-07-31T05:54:22;16.00;99.90
52209;DHT22;38507;53.132;6.394;2023-07-31T05:56:47;16.00;99.90
52209;DHT22;38507;53.132;6.394;2023-07-31T05:59:13;16.10;99.90
52209;DHT22;38507;53.132;6.394;2023-07-31T06:01:39;16.00;99.90
52209;DHT22;38507;53.132;6.394;2023-07-31T06:04:05;16.10;99.90
52209;DHT22;38507;53.132;6.394;2023-07-31T06:06:31;16.20;99.90
52209;DHT22;38507;53.132;6.394;2023-07-31T06:08:56;16.20;99.90
52209;DHT22;38507;53.132;6.394;2023-07-31T06:11:22;16.20;99.90
52209;DHT22;38507;53.132;6.394;2023-07-31T06:13:48;16.30;99.90
52209;DHT22;38507;53.132;6.394;2023-07-31T06:16:15;16.30;99.90
52209;DHT22;38507;53.132;6.394;2023-07-31T06:18:41;16.40;99.90
52209;DHT22;38507;53.132;6.394;2023-07-31T06:21:07;16.40;99.90
52209;DHT22;38507;53.132;6.394;2023-07-31T06:23:33;16.50;99.90
52209;DHT22;38507;53.132;6.394;2023-07-31T06:25:59;16.50;99.90
52209;DHT22;38507;53.132;6.394;2023-07-31T06:28:28;16.60;99.90
52209;DHT22;38507;53.132;6.394;2023-07-31T06:30:55;16.70;99.90
52209;DHT22;38507;53.132;6.394;2023-07-31T06:33:20;16.70;99.90
52209;DHT22;38507;53.132;6.394;2023-07-31T06:35:46;16.80;99.90
52209;DHT22;38507;53.132;6.394;2023-07-31T06:38:11;16.80;99.90
52209;DHT22;38507;53.132;6.394;2023-07-31T06:40:37;16.90;99.90
52209;DHT22;38507;53.132;6.394;2023-07-31T06:43:03;16.90;99.90
52209;DHT22;38507;53.132;6.394;2023-07-31T06:45:36;17.00;99.90
52209;DHT22;38507;53.132;6.394;2023-07-31T06:48:03;17.10;99.90
52209;DHT22;38507;53.132;6.394;2023-07-31T06:50:32;17.10;99.90
52209;DHT22;38507;53.132;6.394;2023-07-31T06:52:58;17.10;99.90
52209;DHT22;38507;53.132;6.394;2023-07-31T06:55:25;17.20;99.90
52209;DHT22;38507;53.132;6.394;2023-07-31T06:57:52;17.20;99.90
52209;DHT22;38507;53.132;6.394;2023-07-31T07:00:19;17.20;99.90
52209;DHT22;38507;53.132;6.394;2023-07-31T07:02:45;17.40;99.90
52209;DHT22;38507;53.132;6.394;2023-07-31T07:05:13;17.30;99.90
52209;DHT22;38507;53.132;6.394;2023-07-31T07:07:39;17.30;99.90
52209;DHT22;38507;53.132;6.394;2023-07-31T07:10:05;17.30;99.90
52209;DHT22;38507;53.132;6.394;2023-07-31T07:12:31;17.40;99.90
52209;DHT22;38507;53.132;6.394;2023-07-31T07:14:57;17.30;99.90
52209;DHT22;38507;53.132;6.394;2023-07-31T07:17:23;17.20;99.90
52209;DHT22;38507;53.132;6.394;2023-07-31T07:19:49;17.20;99.90
52209;DHT22;38507;53.132;6.394;2023-07-31T07:22:15;17.20;99.90
52209;DHT22;38507;53.132;6.394;2023-07-31T07:24:42;17.20;99.90
52209;DHT22;38507;53.132;6.394;2023-07-31T07:27:07;17.20;99.90
52209;DHT22;38507;53.132;6.394;2023-07-31T07:29:38;17.30;99.90
52209;DHT22;38507;53.132;6.394;2023-07-31T07:32:04;17.30;99.90
52209;DHT22;38507;53.132;6.394;2023-07-31T07:34:30;17.20;99.90
52209;DHT22;38507;53.132;6.394;2023-07-31T07:36:56;17.20;99.90
52209;DHT22;38507;53.132;6.394;2023-07-31T07:39:22;17.20;99.90
52209;DHT22;38507;53.132;6.394;2023-07-31T07:41:47;17.20;99.90
52209;DHT22;38507;53.132;6.394;2023-07-31T07:44:13;17.10;99.90
52209;DHT22;38507;53.132;6.394;2023-07-31T07:46:39;17.10;99.90
52209;DHT22;38507;53.132;6.394;2023-07-31T07:49:05;17.10;99.90
52209;DHT22;38507;53.132;6.394;2023-07-31T07:51:31;17.20;99.90
52209;DHT22;38507;53.132;6.394;2023-07-31T07:53:57;17.10;99.90
52209;DHT22;38507;53.132;6.394;2023-07-31T07:56:24;17.00;99.90
52209;DHT22;38507;53.132;6.394;2023-07-31T07:58:50;17.00;99.90
52209;DHT22;38507;53.132;6.394;2023-07-31T08:01:16;17.00;99.90
52209;DHT22;38507;53.132;6.394;2023-07-31T08:03:42;17.10;99.90
52209;DHT22;38507;53.132;6.394;2023-07-31T08:06:07;17.10;99.90
52209;DHT22;38507;53.132;6.394;2023-07-31T08:08:35;17.10;99.90
52209;DHT22;38507;53.132;6.394;2023-07-31T08:11:01;17.10;99.90
52209;DHT22;38507;53.132;6.394;2023-07-31T08:13:26;17.10;99.90
52209;DHT22;38507;53.132;6.394;2023-07-31T08:15:52;17.10;99.90
52209;DHT22;38507;53.132;6.394;2023-07-31T08:18:18;17.20;99.90
52209;DHT22;38507;53.132;6.394;2023-07-31T08:20:44;17.30;99.90
52209;DHT22;38507;53.132;6.394;2023-07-31T08:23:10;17.20;99.90
52209;DHT22;38507;53.132;6.394;2023-07-31T08:25:36;17.20;99.90
52209;DHT22;38507;53.132;6.394;2023-07-31T08:28:03;17.30;99.90
52209;DHT22;38507;53.132;6.394;2023-07-31T08:30:29;17.40;99.90
52209;DHT22;38507;53.132;6.394;2023-07-31T08:32:54;17.30;99.90
52209;DHT22;38507;53.132;6.394;2023-07-31T08:35:20;17.40;99.90
52209;DHT22;38507;53.132;6.394;2023-07-31T08:37:46;17.40;99.90
52209;DHT22;38507;53.132;6.394;2023-07-31T08:40:11;17.40;99.90
52209;DHT22;38507;53.132;6.394;2023-07-31T08:42:46;17.40;99.90
52209;DHT22;38507;53.132;6.394;2023-07-31T08:45:17;17.50;99.90
52209;DHT22;38507;53.132;6.394;2023-07-31T08:47:46;17.50;99.90
52209;DHT22;38507;53.132;6.394;2023-07-31T08:50:17;17.40;99.90
52209;DHT22;38507;53.132;6.394;2023-07-31T08:52:43;17.50;99.90
52209;DHT22;38507;53.132;6.394;2023-07-31T08:55:09;17.50;99.90
52209;DHT22;38507;53.132;6.394;2023-07-31T08:57:37;17.50;99.90
52209;DHT22;38507;53.132;6.394;2023-07-31T09:00:07;17.50;99.90
52209;DHT22;38507;53.132;6.394;2023-07-31T09:03:02;17.50;99.90
52209;DHT22;38507;53.132;6.394;2023-07-31T09:05:30;17.50;99.90
52209;DHT22;38507;53.132;6.394;2023-07-31T09:07:57;17.50;99.90
52209;DHT22;38507;53.132;6.394;2023-07-31T09:10:23;17.50;99.90
52209;DHT22;38507;53.132;6.394;2023-07-31T09:12:51;17.50;99.90
52209;DHT22;38507;53.132;6.394;2023-07-31T09:15:17;17.50;99.90
52209;DHT22;38507;53.132;6.394;2023-07-31T09:17:42;17.60;99.90
52209;DHT22;38507;53.132;6.394;2023-07-31T09:20:21;17.60;99.90
52209;DHT22;38507;53.132;6.394;2023-07-31T09:22:48;17.70;99.90
52209;DHT22;38507;53.132;6.394;2023-07-31T09:25:20;17.60;99.90
52209;DHT22;38507;53.132;6.394;2023-07-31T09:27:57;17.70;99.90
52209;DHT22;38507;53.132;6.394;2023-07-31T09:30:23;17.70;99.90
52209;DHT22;38507;53.132;6.394;2023-07-31T09:32:50;17.80;99.90
52209;DHT22;38507;53.132;6.394;2023-07-31T09:35:29;17.80;99.90
52209;DHT22;38507;53.132;6.394;2023-07-31T09:38:09;17.80;99.90
52209;DHT22;38507;53.132;6.394;2023-07-31T09:40:40;17.80;99.90
52209;DHT22;38507;53.132;6.394;2023-07-31T09:43:10;17.90;99.90
52209;DHT22;38507;53.132;6.394;2023-07-31T09:45:38;17.90;99.90
52209;DHT22;38507;53.132;6.394;2023-07-31T09:48:12;18.00;99.90
52209;DHT22;38507;53.132;6.394;2023-07-31T09:50:39;17.90;99.90
52209;DHT22;38507;53.132;6.394;2023-07-31T09:53:06;18.00;99.90
52209;DHT22;38507;53.132;6.394;2023-07-31T09:55:32;18.00;99.90
52209;DHT22;38507;53.132;6.394;2023-07-31T09:57:58;18.00;99.90
52209;DHT22;38507;53.132;6.394;2023-07-31T10:00:24;17.90;99.90
52209;DHT22;38507;53.132;6.394;2023-07-31T10:02:53;18.10;99.90
52209;DHT22;38507;53.132;6.394;2023-07-31T10:05:21;18.20;99.90
52209;DHT22;38507;53.132;6.394;2023-07-31T10:07:57;18.10;99.90
52209;DHT22;38507;53.132;6.394;2023-07-31T10:10:23;18.20;99.90
52209;DHT22;38507;53.132;6.394;2023-07-31T10:12:52;18.20;99.90
52209;DHT22;38507;53.132;6.394;2023-07-31T10:15:18;18.20;99.90
52209;DHT22;38507;53.132;6.394;2023-07-31T10:17:44;18.20;99.90
52209;DHT22;38507;53.132;6.394;2023-07-31T10:20:11;18.20;99.90
52209;DHT22;38507;53.132;6.394;2023-07-31T10:22:38;18.20;99.90
52209;DHT22;38507;53.132;6.394;2023-07-31T10:25:05;18.40;99.90
52209;DHT22;38507;53.132;6.394;2023-07-31T10:27:34;18.30;99.90
52209;DHT22;38507;53.132;6.394;2023-07-31T10:30:02;18.30;99.90
52209;DHT22;38507;53.132;6.394;2023-07-31T10:32:30;18.40;99.90
52209;DHT22;38507;53.132;6.394;2023-07-31T10:34:56;18.40;99.90
52209;DHT22;38507;53.132;6.394;2023-07-31T10:37:39;18.50;99.90
52209;DHT22;38507;53.132;6.394;2023-07-31T10:42:34;18.80;99.90
52209;DHT22;38507;53.132;6.394;2023-07-31T10:45:08;18.90;99.90
52209;DHT22;38507;53.132;6.394;2023-07-31T10:47:45;19.10;99.90
52209;DHT22;38507;53.132;6.394;2023-07-31T10:50:21;19.20;99.90
52209;DHT22;38507;53.132;6.394;2023-07-31T10:52:49;19.10;99.90
52209;DHT22;38507;53.132;6.394;2023-07-31T10:55:26;19.20;99.90
52209;DHT22;38507;53.132;6.394;2023-07-31T10:58:06;19.10;99.90
52209;DHT22;38507;53.132;6.394;2023-07-31T11:00:32;19.10;99.90
52209;DHT22;38507;53.132;6.394;2023-07-31T11:02:59;19.10;99.90
52209;DHT22;38507;53.132;6.394;2023-07-31T11:05:47;19.10;99.90
52209;DHT22;38507;53.132;6.394;2023-07-31T11:08:19;19.10;99.90
52209;DHT22;38507;53.132;6.394;2023-07-31T11:10:46;19.30;99.90
52209;DHT22;38507;53.132;6.394;2023-07-31T11:13:12;19.30;99.90
52209;DHT22;38507;53.132;6.394;2023-07-31T11:15:38;19.40;99.90
52209;DHT22;38507;53.132;6.394;2023-07-31T11:18:04;19.50;99.90
52209;DHT22;38507;53.132;6.394;2023-07-31T11:20:32;19.60;99.90
52209;DHT22;38507;53.132;6.394;2023-07-31T11:23:02;19.70;99.90
52209;DHT22;38507;53.132;6.394;2023-07-31T11:25:32;19.80;99.90
52209;DHT22;38507;53.132;6.394;2023-07-31T11:28:05;19.90;99.90
52209;DHT22;38507;53.132;6.394;2023-07-31T11:30:31;19.80;99.90
52209;DHT22;38507;53.132;6.394;2023-07-31T11:32:57;19.90;99.90
52209;DHT22;38507;53.132;6.394;2023-07-31T11:35:23;19.90;99.90
52209;DHT22;38507;53.132;6.394;2023-07-31T11:37:48;19.90;99.90
52209;DHT22;38507;53.132;6.394;2023-07-31T11:40:15;20.10;99.90
52209;DHT22;38507;53.132;6.394;2023-07-31T11:42:41;20.40;99.90
52209;DHT22;38507;53.132;6.394;2023-07-31T11:45:10;20.40;99.90
52209;DHT22;38507;53.132;6.394;2023-07-31T11:47:37;20.30;99.90
52209;DHT22;38507;53.132;6.394;2023-07-31T11:50:04;20.10;99.90
52209;DHT22;38507;53.132;6.394;2023-07-31T11:52:34;20.00;99.90
52209;DHT22;38507;53.132;6.394;2023-07-31T11:55:01;19.70;99.90
52209;DHT22;38507;53.132;6.394;2023-07-31T11:57:27;19.60;99.90
52209;DHT22;38507;53.132;6.394;2023-07-31T11:59:55;19.40;99.90
52209;DHT22;38507;53.132;6.394;2023-07-31T12:02:21;19.30;99.90
52209;DHT22;38507;53.132;6.394;2023-07-31T12:04:47;19.40;99.90
52209;DHT22;38507;53.132;6.394;2023-07-31T12:07:13;19.50;99.90
52209;DHT22;38507;53.132;6.394;2023-07-31T12:09:59;19.40;99.90
52209;DHT22;38507;53.132;6.394;2023-07-31T12:12:25;19.40;99.90
52209;DHT22;38507;53.132;6.394;2023-07-31T12:14:51;19.40;99.90
52209;DHT22;38507;53.132;6.394;2023-07-31T12:17:19;19.50;99.90
52209;DHT22;38507;53.132;6.394;2023-07-31T12:19:45;19.50;99.90
52209;DHT22;38507;53.132;6.394;2023-07-31T12:22:16;19.20;99.90
52209;DHT22;38507;53.132;6.394;2023-07-31T12:24:45;19.10;99.90
52209;DHT22;38507;53.132;6.394;2023-07-31T12:27:14;19.30;99.90
52209;DHT22;38507;53.132;6.394;2023-07-31T12:29:43;19.20;99.90
52209;DHT22;38507;53.132;6.394;2023-07-31T12:32:23;19.10;99.90
52209;DHT22;38507;53.132;6.394;2023-07-31T12:34:50;19.10;99.90
52209;DHT22;38507;53.132;6.394;2023-07-31T12:37:16;19.10;99.90
52209;DHT22;38507;53.132;6.394;2023-07-31T12:39:42;19.20;99.90
52209;DHT22;38507;53.132;6.394;2023-07-31T12:42:08;19.20;99.90
52209;DHT22;38507;53.132;6.394;2023-07-31T12:44:33;19.30;99.90
52209;DHT22;38507;53.132;6.394;2023-07-31T12:46:59;19.20;99.90
52209;DHT22;38507;53.132;6.394;2023-07-31T12:49:24;19.30;99.90
52209;DHT22;38507;53.132;6.394;2023-07-31T12:51:50;19.20;99.90
52209;DHT22;38507;53.132;6.394;2023-07-31T12:54:16;19.30;99.90
52209;DHT22;38507;53.132;6.394;2023-07-31T12:56:41;19.30;99.90
52209;DHT22;38507;53.132;6.394;2023-07-31T12:59:07;19.30;99.90
52209;DHT22;38507;53.132;6.394;2023-07-31T13:01:33;19.30;99.90
52209;DHT22;38507;53.132;6.394;2023-07-31T13:03:58;19.30;99.90
52209;DHT22;38507;53.132;6.394;2023-07-31T13:06:25;19.40;99.90
52209;DHT22;38507;53.132;6.394;2023-07-31T13:08:51;19.30;99.90
52209;DHT22;38507;53.132;6.394;2023-07-31T13:11:16;19.40;99.90
52209;DHT22;38507;53.132;6.394;2023-07-31T13:13:42;19.30;99.90
52209;DHT22;38507;53.132;6.394;2023-07-31T13:16:08;19.40;99.90
52209;DHT22;38507;53.132;6.394;2023-07-31T13:18:33;19.40;99.90
52209;DHT22;38507;53.132;6.394;2023-07-31T13:20:59;19.50;99.90
52209;DHT22;38507;53.132;6.394;2023-07-31T13:23:25;19.50;99.90
52209;DHT22;38507;53.132;6.394;2023-07-31T13:25:50;19.60;99.90
52209;DHT22;38507;53.132;6.394;2023-07-31T13:28:16;19.60;99.90
52209;DHT22;38507;53.132;6.394;2023-07-31T13:30:42;19.60;99.90
52209;DHT22;38507;53.132;6.394;2023-07-31T13:33:07;19.70;99.90
52209;DHT22;38507;53.132;6.394;2023-07-31T13:35:33;19.70;99.90
52209;DHT22;38507;53.132;6.394;2023-07-31T13:37:58;19.70;99.90
52209;DHT22;38507;53.132;6.394;2023-07-31T13:40:24;19.70;99.90
52209;DHT22;38507;53.132;6.394;2023-07-31T13:42:50;19.70;99.90
52209;DHT22;38507;53.132;6.394;2023-07-31T13:45:15;19.70;99.90
52209;DHT22;38507;53.132;6.394;2023-07-31T13:47:41;19.80;99.90
52209;DHT22;38507;53.132;6.394;2023-07-31T13:50:07;19.80;99.90
52209;DHT22;38507;53.132;6.394;2023-07-31T13:52:32;19.90;99.90
52209;DHT22;38507;53.132;6.394;2023-07-31T13:54:58;20.10;99.90
52209;DHT22;38507;53.132;6.394;2023-07-31T13:57:24;20.10;99.90
52209;DHT22;38507;53.132;6.394;2023-07-31T13:59:49;20.10;99.90
52209;DHT22;38507;53.132;6.394;2023-07-31T14:02:15;20.20;99.90
52209;DHT22;38507;53.132;6.394;2023-07-31T14:04:41;20.10;99.90
52209;DHT22;38507;53.132;6.394;2023-07-31T14:07:06;20.20;99.90
52209;DHT22;38507;53.132;6.394;2023-07-31T14:09:32;20.10;99.90
52209;DHT22;38507;53.132;6.394;2023-07-31T14:11:58;20.00;99.90
52209;DHT22;38507;53.132;6.394;2023-07-31T14:14:23;20.00;99.90
52209;DHT22;38507;53.132;6.394;2023-07-31T14:16:49;20.00;99.90
52209;DHT22;38507;53.132;6.394;2023-07-31T14:19:15;20.00;99.90
52209;DHT22;38507;53.132;6.394;2023-07-31T14:21:40;20.00;99.90
52209;DHT22;38507;53.132;6.394;2023-07-31T14:24:06;19.90;99.90
52209;DHT22;38507;53.132;6.394;2023-07-31T14:26:31;19.90;99.90
52209;DHT22;38507;53.132;6.394;2023-07-31T14:28:57;20.00;99.90
52209;DHT22;38507;53.132;6.394;2023-07-31T14:31:23;20.00;99.90
52209;DHT22;38507;53.132;6.394;2023-07-31T14:33:48;20.00;99.90
52209;DHT22;38507;53.132;6.394;2023-07-31T14:36:14;20.00;99.90
52209;DHT22;38507;53.132;6.394;2023-07-31T14:38:40;19.90;99.90
52209;DHT22;38507;53.132;6.394;2023-07-31T14:41:05;19.90;99.90
52209;DHT22;38507;53.132;6.394;2023-07-31T14:43:31;19.90;99.90
52209;DHT22;38507;53.132;6.394;2023-07-31T14:45:57;19.80;99.90
52209;DHT22;38507;53.132;6.394;2023-07-31T14:48:25;19.80;99.90
52209;DHT22;38507;53.132;6.394;2023-07-31T14:50:51;19.70;99.90
52209;DHT22;38507;53.132;6.394;2023-07-31T14:53:17;19.70;99.90
52209;DHT22;38507;53.132;6.394;2023-07-31T14:55:42;19.70;99.90
52209;DHT22;38507;53.132;6.394;2023-07-31T14:58:08;19.70;99.90
52209;DHT22;38507;53.132;6.394;2023-07-31T15:00:36;19.60;99.90
52209;DHT22;38507;53.132;6.394;2023-07-31T15:03:02;19.60;99.90
52209;DHT22;38507;53.132;6.394;2023-07-31T15:05:28;19.60;99.90
52209;DHT22;38507;53.132;6.394;2023-07-31T15:07:54;19.60;99.90
52209;DHT22;38507;53.132;6.394;2023-07-31T15:10:20;19.60;99.90
52209;DHT22;38507;53.132;6.394;2023-07-31T15:12:45;19.60;99.90
52209;DHT22;38507;53.132;6.394;2023-07-31T15:15:11;19.60;99.90
52209;DHT22;38507;53.132;6.394;2023-07-31T15:17:37;19.50;99.90
52209;DHT22;38507;53.132;6.394;2023-07-31T15:20:03;19.50;99.90
52209;DHT22;38507;53.132;6.394;2023-07-31T15:22:29;19.50;99.90
52209;DHT22;38507;53.132;6.394;2023-07-31T15:24:56;19.50;99.90
52209;DHT22;38507;53.132;6.394;2023-07-31T15:27:22;19.60;99.90
52209;DHT22;38507;53.132;6.394;2023-07-31T15:29:49;19.50;99.90
52209;DHT22;38507;53.132;6.394;2023-07-31T15:32:16;19.50;99.90
52209;DHT22;38507;53.132;6.394;2023-07-31T15:34:43;19.50;99.90